createdAt,value
2018-09-29T00:00:10.056Z,1000.64
2018-09-29T00:01:10.033Z,1000.69
2018-09-29T00:02:10.030Z,1000.68
2018-09-29T00:03:10.093Z,1000.7
2018-09-29T00:04:10.028Z,1000.73
2018-09-29T00:05:10.035Z,1000.72
2018-09-29T00:06:10.021Z,1000.7
2018-09-29T00:07:10.018Z,1000.73
2018-09-29T00:08:10.015Z,1000.74
2018-09-29T00:09:10.012Z,1000.74
2018-09-29T00:10:10.196Z,1000.78
2018-09-29T00:11:10.006Z,1000.79
2018-09-29T00:12:10.001Z,1000.92
2018-09-29T00:13:09.998Z,1000.88
2018-09-29T00:14:09.994Z,1000.89
2018-09-29T00:15:10.102Z,1000.92
2018-09-29T00:16:09.991Z,1000.92
2018-09-29T00:17:09.987Z,1000.91
2018-09-29T00:18:09.983Z,1000.88
2018-09-29T00:19:10.057Z,1000.91
2018-09-29T00:20:10.128Z,1000.9
2018-09-29T00:21:09.976Z,1000.95
2018-09-29T00:22:09.974Z,1000.98
2018-09-29T00:23:09.975Z,1000.94
2018-09-29T00:24:09.973Z,1000.98
2018-09-29T00:25:10.096Z,1000.91
2018-09-29T00:26:09.971Z,1000.94
2018-09-29T00:27:09.964Z,1000.91
2018-09-29T00:28:09.963Z,1000.85
2018-09-29T00:29:09.958Z,1000.82
2018-09-29T00:30:09.959Z,1000.86
2018-09-29T00:31:09.952Z,1000.86
2018-09-29T00:32:09.954Z,1000.86
2018-09-29T00:33:09.950Z,1000.9
2018-09-29T00:34:09.948Z,1000.95
2018-09-29T00:35:10.096Z,1000.9
2018-09-29T00:36:09.947Z,1000.93
2018-09-29T00:37:09.949Z,1000.93
2018-09-29T00:38:09.938Z,1000.92
2018-09-29T00:39:09.933Z,1000.88
2018-09-29T00:40:10.110Z,1000.9
2018-09-29T00:41:09.935Z,1000.89
2018-09-29T00:42:09.925Z,1000.9
2018-09-29T00:43:09.920Z,1000.88
2018-09-29T00:44:09.918Z,1000.88
2018-09-29T00:45:10.062Z,1000.85
2018-09-29T00:46:09.919Z,1000.88
2018-09-29T00:47:09.907Z,1000.86
2018-09-29T00:48:09.908Z,1000.87
2018-09-29T00:49:09.905Z,1000.93
2018-09-29T00:50:09.988Z,1000.9
2018-09-29T00:51:09.897Z,1000.89
2018-09-29T00:52:09.903Z,1000.93
2018-09-29T00:53:09.898Z,1000.91
2018-09-29T00:54:09.906Z,1000.88
2018-09-29T00:55:10.129Z,1000.88
2018-09-29T00:56:09.886Z,1000.85
2018-09-29T00:57:09.883Z,1000.83
2018-09-29T00:58:09.879Z,1000.86
2018-09-29T00:59:09.877Z,1000.85
2018-09-29T01:00:09.965Z,1000.82
2018-09-29T01:01:09.895Z,1000.82
2018-09-29T01:02:09.869Z,1000.84
2018-09-29T01:03:09.867Z,1000.87
2018-09-29T01:04:09.865Z,1000.84
2018-09-29T01:05:10.047Z,1000.88
2018-09-29T01:06:09.860Z,1000.81
2018-09-29T01:07:09.861Z,1000.78
2018-09-29T01:08:09.853Z,1000.84
2018-09-29T01:09:09.852Z,1000.86
2018-09-29T01:10:09.894Z,1000.84
2018-09-29T01:11:09.847Z,1000.81
2018-09-29T01:12:09.845Z,1000.79
2018-09-29T01:13:09.843Z,1000.77
2018-09-29T01:14:09.839Z,1000.8
2018-09-29T01:15:09.920Z,1000.78
2018-09-29T01:16:09.839Z,1000.8
2018-09-29T01:17:09.835Z,1000.76
2018-09-29T01:18:09.828Z,1000.79
2018-09-29T01:19:09.823Z,1000.78
2018-09-29T01:20:10.083Z,1000.75
2018-09-29T01:21:09.823Z,1000.77
2018-09-29T01:22:09.829Z,1000.74
2018-09-29T01:23:09.816Z,1000.75
2018-09-29T01:24:09.818Z,1000.76
2018-09-29T01:25:09.878Z,1000.74
2018-09-29T01:26:09.807Z,1000.69
2018-09-29T01:27:09.805Z,1000.65
2018-09-29T01:28:09.800Z,1000.64
2018-09-29T01:29:09.801Z,1000.64
2018-09-29T01:30:09.991Z,1000.62
2018-09-29T01:31:09.794Z,1000.6
2018-09-29T01:32:09.794Z,1000.59
2018-09-29T01:33:09.794Z,1000.6
2018-09-29T01:34:09.786Z,1000.64
2018-09-29T01:35:09.835Z,1000.58
2018-09-29T01:36:09.783Z,1000.54
2018-09-29T01:37:09.786Z,1000.55
2018-09-29T01:38:09.782Z,1000.53
2018-09-29T01:39:09.767Z,1000.5
2018-09-29T01:40:09.771Z,1000.5
2018-09-29T01:41:09.766Z,1000.48
2018-09-29T01:42:09.759Z,1000.52
2018-09-29T01:43:09.756Z,1000.47
2018-09-29T01:44:09.753Z,1000.47
2018-09-29T01:45:09.755Z,1000.48
2018-09-29T01:46:09.746Z,1000.5
2018-09-29T01:47:09.744Z,1000.45
2018-09-29T01:48:09.742Z,1000.41
2018-09-29T01:49:09.741Z,1000.43
2018-09-29T01:50:09.852Z,1000.38
2018-09-29T01:51:09.737Z,1000.4
2018-09-29T01:52:09.733Z,1000.37
2018-09-29T01:53:09.731Z,1000.33
2018-09-29T01:54:09.729Z,1000.32
2018-09-29T01:55:09.810Z,1000.27
2018-09-29T01:56:09.716Z,1000.27
2018-09-29T01:57:09.727Z,1000.26
2018-09-29T01:58:09.709Z,1000.22
2018-09-29T01:59:09.707Z,1000.2
2018-09-29T02:00:09.784Z,1000.19
2018-09-29T02:01:09.699Z,1000.22
2018-09-29T02:02:09.697Z,1000.21
2018-09-29T02:03:09.703Z,1000.2
2018-09-29T02:04:09.689Z,1000.18
2018-09-29T02:05:09.779Z,1000.19
2018-09-29T02:06:09.690Z,1000.22
2018-09-29T02:07:09.680Z,1000.22
2018-09-29T02:08:09.679Z,1000.23
2018-09-29T02:09:09.673Z,1000.21
2018-09-29T02:10:09.755Z,1000.12
2018-09-29T02:11:09.667Z,1000.14
2018-09-29T02:12:09.663Z,1000.13
2018-09-29T02:13:09.661Z,1000.1
2018-09-29T02:14:09.659Z,1000.11
2018-09-29T02:15:09.838Z,1000.11
2018-09-29T02:16:09.652Z,1000.12
2018-09-29T02:17:09.648Z,1000.1
2018-09-29T02:18:09.644Z,1000.07
2018-09-29T02:19:09.644Z,1000.08
2018-09-29T02:20:09.662Z,1000.08
2018-09-29T02:21:09.636Z,1000.05
2018-09-29T02:22:09.627Z,1000.07
2018-09-29T02:23:09.624Z,1000.05
2018-09-29T02:24:09.625Z,1000.07
2018-09-29T02:25:09.730Z,1000.06
2018-09-29T02:26:09.617Z,1000.04
2018-09-29T02:27:09.614Z,1000.07
2018-09-29T02:28:09.609Z,1000.02
2018-09-29T02:29:09.602Z,1000.06
2018-09-29T02:30:09.613Z,1000.11
2018-09-29T02:31:09.608Z,1000.14
2018-09-29T02:32:09.594Z,1000.16
2018-09-29T02:33:09.592Z,1000.15
2018-09-29T02:34:09.589Z,1000.19
2018-09-29T02:35:09.690Z,1000.26
2018-09-29T02:36:09.580Z,1000.31
2018-09-29T02:37:09.578Z,1000.26
2018-09-29T02:38:09.572Z,1000.27
2018-09-29T02:39:09.570Z,1000.27
2018-09-29T02:40:09.672Z,1000.26
2018-09-29T02:41:09.560Z,1000.29
2018-09-29T02:42:09.556Z,1000.28
2018-09-29T02:43:09.554Z,1000.3
2018-09-29T02:44:09.546Z,1000.29
2018-09-29T02:45:09.629Z,1000.25
2018-09-29T02:46:09.542Z,1000.26
2018-09-29T02:47:09.533Z,1000.27
2018-09-29T02:48:09.532Z,1000.26
2018-09-29T02:49:09.529Z,1000.24
2018-09-29T02:50:09.626Z,1000.23
2018-09-29T02:51:09.524Z,1000.16
2018-09-29T02:52:09.522Z,1000.14
2018-09-29T02:53:09.509Z,1000.12
2018-09-29T02:54:09.526Z,1000.09
2018-09-29T02:55:09.626Z,1000.1
2018-09-29T02:56:09.506Z,1000.12
2018-09-29T02:57:09.492Z,1000.08
2018-09-29T02:58:09.491Z,1000.13
2018-09-29T02:59:09.483Z,1000.16
2018-09-29T03:00:09.642Z,1000.21
2018-09-29T03:01:09.482Z,1000.23
2018-09-29T03:02:09.473Z,1000.23
2018-09-29T03:03:09.474Z,1000.24
2018-09-29T03:04:09.466Z,1000.22
2018-09-29T03:05:09.565Z,1000.24
2018-09-29T03:06:09.456Z,1000.25
2018-09-29T03:07:09.500Z,1000.26
2018-09-29T03:08:09.448Z,1000.34
2018-09-29T03:09:09.445Z,1000.37
2018-09-29T03:10:09.543Z,1000.38
2018-09-29T03:11:09.446Z,1000.38
2018-09-29T03:12:09.430Z,1000.37
2018-09-29T03:13:09.429Z,1000.38
2018-09-29T03:14:09.424Z,1000.35
2018-09-29T03:15:09.497Z,1000.33
2018-09-29T03:16:09.413Z,1000.39
2018-09-29T03:17:09.420Z,1000.37
2018-09-29T03:18:09.402Z,1000.35
2018-09-29T03:19:09.428Z,1000.31
2018-09-29T03:20:09.515Z,1000.3
2018-09-29T03:21:09.393Z,1000.32
2018-09-29T03:22:09.390Z,1000.36
2018-09-29T03:23:09.443Z,1000.34
2018-09-29T03:24:09.377Z,1000.36
2018-09-29T03:25:09.509Z,1000.39
2018-09-29T03:26:09.372Z,1000.31
2018-09-29T03:27:09.366Z,1000.36
2018-09-29T03:28:09.361Z,1000.36
2018-09-29T03:29:09.357Z,1000.36
2018-09-29T03:30:09.586Z,1000.41
2018-09-29T03:31:09.368Z,1000.4
2018-09-29T03:32:09.379Z,1000.38
2018-09-29T03:33:09.351Z,1000.39
2018-09-29T03:34:09.333Z,1000.4
2018-09-29T03:35:09.459Z,1000.37
2018-09-29T03:36:09.323Z,1000.44
2018-09-29T03:37:09.319Z,1000.45
2018-09-29T03:38:09.313Z,1000.43
2018-09-29T03:39:09.307Z,1000.45
2018-09-29T03:40:09.386Z,1000.46
2018-09-29T03:41:09.305Z,1000.41
2018-09-29T03:42:09.302Z,1000.43
2018-09-29T03:43:09.308Z,1000.42
2018-09-29T03:44:09.304Z,1000.43
2018-09-29T03:45:09.356Z,1000.44
2018-09-29T03:46:09.283Z,1000.37
2018-09-29T03:47:09.272Z,1000.42
2018-09-29T03:48:09.272Z,1000.44
2018-09-29T03:49:09.260Z,1000.43
2018-09-29T03:50:09.374Z,1000.45
2018-09-29T03:51:09.264Z,1000.41
2018-09-29T03:52:09.254Z,1000.45
2018-09-29T03:53:09.240Z,1000.45
2018-09-29T03:54:09.235Z,1000.49
2018-09-29T03:55:09.240Z,1000.5
2018-09-29T03:56:09.228Z,1000.46
2018-09-29T03:57:09.230Z,1000.48
2018-09-29T03:58:09.216Z,1000.47
2018-09-29T03:59:09.222Z,1000.48
2018-09-29T04:00:09.351Z,1000.48
2018-09-29T04:01:09.215Z,1000.48
2018-09-29T04:02:09.203Z,1000.47
2018-09-29T04:03:09.217Z,1000.49
2018-09-29T04:04:09.186Z,1000.5
2018-09-29T04:05:09.258Z,1000.48
2018-09-29T04:06:09.177Z,1000.52
2018-09-29T04:07:09.173Z,1000.45
2018-09-29T04:08:09.167Z,1000.43
2018-09-29T04:09:09.170Z,1000.39
2018-09-29T04:10:09.183Z,1000.41
2018-09-29T04:11:09.154Z,1000.41
2018-09-29T04:12:09.146Z,1000.42
2018-09-29T04:13:09.145Z,1000.4
2018-09-29T04:14:09.142Z,1000.4
2018-09-29T04:15:09.226Z,1000.4
2018-09-29T04:16:09.128Z,1000.37
2018-09-29T04:17:09.122Z,1000.38
2018-09-29T04:18:09.116Z,1000.42
2018-09-29T04:19:09.111Z,1000.39
2018-09-29T04:20:09.130Z,1000.39
2018-09-29T04:21:09.104Z,1000.4
2018-09-29T04:22:09.101Z,1000.44
2018-09-29T04:23:09.092Z,1000.45
2018-09-29T04:24:09.099Z,1000.49
2018-09-29T04:25:09.140Z,1000.55
2018-09-29T04:26:09.078Z,1000.53
2018-09-29T04:27:09.070Z,1000.52
2018-09-29T04:28:09.072Z,1000.51
2018-09-29T04:29:09.065Z,1000.51
2018-09-29T04:30:09.065Z,1000.53
2018-09-29T04:31:09.053Z,1000.5
2018-09-29T04:32:09.050Z,1000.48
2018-09-29T04:33:09.042Z,1000.48
2018-09-29T04:34:09.035Z,1000.47
2018-09-29T04:35:09.148Z,1000.48
2018-09-29T04:36:09.026Z,1000.47
2018-09-29T04:37:09.021Z,1000.51
2018-09-29T04:38:09.017Z,1000.48
2018-09-29T04:39:09.013Z,1000.47
2018-09-29T04:40:09.039Z,1000.5
2018-09-29T04:41:09.001Z,1000.5
2018-09-29T04:42:08.996Z,1000.53
2018-09-29T04:43:09.049Z,1000.51
2018-09-29T04:44:08.989Z,1000.48
2018-09-29T04:45:09.007Z,1000.5
2018-09-29T04:46:08.977Z,1000.52
2018-09-29T04:47:08.973Z,1000.52
2018-09-29T04:48:08.971Z,1000.51
2018-09-29T04:49:09.017Z,1000.57
2018-09-29T04:50:08.989Z,1000.6
2018-09-29T04:51:08.953Z,1000.62
2018-09-29T04:52:08.944Z,1000.66
2018-09-29T04:53:08.940Z,1000.66
2018-09-29T04:54:08.937Z,1000.66
2018-09-29T04:55:08.975Z,1000.67
2018-09-29T04:56:08.950Z,1000.67
2018-09-29T04:57:08.922Z,1000.68
2018-09-29T04:58:08.918Z,1000.67
2018-09-29T04:59:08.920Z,1000.67
2018-09-29T05:00:08.986Z,1000.71
2018-09-29T05:01:08.906Z,1000.68
2018-09-29T05:02:08.899Z,1000.72
2018-09-29T05:03:08.892Z,1000.71
2018-09-29T05:04:08.886Z,1000.74
2018-09-29T05:05:08.948Z,1000.78
2018-09-29T05:06:08.879Z,1000.76
2018-09-29T05:07:08.875Z,1000.78
2018-09-29T05:08:08.866Z,1000.74
2018-09-29T05:09:08.862Z,1000.78
2018-09-29T05:10:08.868Z,1000.8
2018-09-29T05:11:08.855Z,1000.77
2018-09-29T05:12:08.857Z,1000.78
2018-09-29T05:13:08.842Z,1000.74
2018-09-29T05:14:08.847Z,1000.75
2018-09-29T05:15:08.890Z,1000.77
2018-09-29T05:16:08.832Z,1000.74
2018-09-29T05:17:08.824Z,1000.77
2018-09-29T05:18:08.815Z,1000.77
2018-09-29T05:19:08.811Z,1000.79
2018-09-29T05:20:08.856Z,1000.77
2018-09-29T05:21:08.800Z,1000.81
2018-09-29T05:22:08.799Z,1000.8
2018-09-29T05:23:08.800Z,1000.78
2018-09-29T05:24:08.785Z,1000.77
2018-09-29T05:25:08.833Z,1000.8
2018-09-29T05:26:08.779Z,1000.83
2018-09-29T05:27:08.769Z,1000.86
2018-09-29T05:28:08.763Z,1000.86
2018-09-29T05:29:08.761Z,1000.88
2018-09-29T05:30:08.757Z,1000.87
2018-09-29T05:31:08.755Z,1000.85
2018-09-29T05:32:08.745Z,1000.86
2018-09-29T05:33:08.745Z,1000.84
2018-09-29T05:34:08.745Z,1000.82
2018-09-29T05:35:08.990Z,1000.83
2018-09-29T05:36:08.730Z,1000.82
2018-09-29T05:37:08.720Z,1000.83
2018-09-29T05:38:08.712Z,1000.84
2018-09-29T05:39:08.707Z,1000.86
2018-09-29T05:40:08.901Z,1000.89
2018-09-29T05:41:08.694Z,1000.84
2018-09-29T05:42:08.694Z,1000.87
2018-09-29T05:43:08.703Z,1000.85
2018-09-29T05:44:08.681Z,1000.87
2018-09-29T05:45:08.703Z,1000.89
2018-09-29T05:46:08.670Z,1000.84
2018-09-29T05:47:08.665Z,1000.85
2018-09-29T05:48:08.669Z,1000.85
2018-09-29T05:49:08.653Z,1000.85
2018-09-29T05:50:08.648Z,1000.85
2018-09-29T05:51:08.642Z,1000.84
2018-09-29T05:52:08.638Z,1000.87
2018-09-29T05:53:08.639Z,1000.84
2018-09-29T05:54:08.626Z,1000.93
2018-09-29T05:55:08.869Z,1000.87
2018-09-29T05:56:08.617Z,1000.89
2018-09-29T05:57:08.613Z,1000.86
2018-09-29T05:58:08.606Z,1000.82
2018-09-29T05:59:08.613Z,1000.89
2018-09-29T06:00:08.686Z,1000.84
2018-09-29T06:01:08.591Z,1000.93
2018-09-29T06:02:08.586Z,1000.86
2018-09-29T06:03:08.587Z,1000.88
2018-09-29T06:04:08.579Z,1000.92
2018-09-29T06:05:08.766Z,1000.96
2018-09-29T06:06:08.574Z,1000.91
2018-09-29T06:07:08.611Z,1000.95
2018-09-29T06:08:08.563Z,1000.92
2018-09-29T06:09:08.559Z,1000.94
2018-09-29T06:10:08.627Z,1000.96
2018-09-29T06:11:08.541Z,1000.94
2018-09-29T06:12:08.537Z,1000.96
2018-09-29T06:13:08.537Z,1000.98
2018-09-29T06:14:08.528Z,1001.01
2018-09-29T06:15:08.556Z,1000.95
2018-09-29T06:16:08.525Z,1000.98
2018-09-29T06:17:08.512Z,1001
2018-09-29T06:18:08.527Z,1001.01
2018-09-29T06:19:08.505Z,1001.02
2018-09-29T06:20:08.636Z,1001.01
2018-09-29T06:21:08.494Z,1001.01
2018-09-29T06:22:08.494Z,1001.01
2018-09-29T06:23:08.484Z,1000.97
2018-09-29T06:24:08.603Z,1001
2018-09-29T06:25:08.553Z,1001.01
2018-09-29T06:26:08.471Z,1001.02
2018-09-29T06:27:08.483Z,1001.03
2018-09-29T06:28:08.462Z,1001.03
2018-09-29T06:29:08.461Z,1001.03
2018-09-29T06:30:08.595Z,1000.99
2018-09-29T06:31:08.450Z,1000.97
2018-09-29T06:32:08.443Z,1000.96
2018-09-29T06:33:08.443Z,1000.95
2018-09-29T06:34:08.488Z,1000.97
2018-09-29T06:35:08.496Z,1001.02
2018-09-29T06:36:08.427Z,1001.03
2018-09-29T06:37:08.439Z,1001.03
2018-09-29T06:38:08.418Z,1001.04
2018-09-29T06:39:08.412Z,1001.07
2018-09-29T06:40:08.496Z,1001.11
2018-09-29T06:41:08.405Z,1001.11
2018-09-29T06:42:08.402Z,1001.09
2018-09-29T06:43:08.399Z,1001.12
2018-09-29T06:44:08.404Z,1001.15
2018-09-29T06:45:08.482Z,1001.14
2018-09-29T06:46:08.394Z,1001.18
2018-09-29T06:47:08.389Z,1001.19
2018-09-29T06:48:08.392Z,1001.18
2018-09-29T06:49:08.372Z,1001.21
2018-09-29T06:50:08.491Z,1001.22
2018-09-29T06:51:08.364Z,1001.23
2018-09-29T06:52:08.360Z,1001.28
2018-09-29T06:53:08.352Z,1001.26
2018-09-29T06:54:08.352Z,1001.22
2018-09-29T06:55:08.454Z,1001.19
2018-09-29T06:56:08.346Z,1001.2
2018-09-29T06:57:08.341Z,1001.2
2018-09-29T06:58:08.339Z,1001.22
2018-09-29T06:59:08.352Z,1001.27
2018-09-29T07:00:08.419Z,1001.27
2018-09-29T07:01:08.325Z,1001.29
2018-09-29T07:02:08.333Z,1001.31
2018-09-29T07:03:08.429Z,1001.26
2018-09-29T07:04:08.316Z,1001.33
2018-09-29T07:05:08.474Z,1001.3
2018-09-29T07:06:08.309Z,1001.34
2018-09-29T07:07:08.312Z,1001.34
2018-09-29T07:08:08.305Z,1001.27
2018-09-29T07:09:08.307Z,1001.3
2018-09-29T07:10:08.367Z,1001.27
2018-09-29T07:11:08.303Z,1001.32
2018-09-29T07:12:08.336Z,1001.29
2018-09-29T07:13:08.320Z,1001.31
2018-09-29T07:14:08.297Z,1001.28
2018-09-29T07:15:08.455Z,1001.27
2018-09-29T07:16:08.293Z,1001.29
2018-09-29T07:17:08.298Z,1001.28
2018-09-29T07:18:08.299Z,1001.3
2018-09-29T07:19:08.298Z,1001.32
2018-09-29T07:20:08.468Z,1001.3
2018-09-29T07:21:08.305Z,1001.28
2018-09-29T07:22:08.318Z,1001.29
2018-09-29T07:23:08.301Z,1001.33
2018-09-29T07:24:08.298Z,1001.31
2018-09-29T07:25:08.456Z,1001.35
2018-09-29T07:26:08.298Z,1001.37
2018-09-29T07:27:08.315Z,1001.33
2018-09-29T07:28:08.301Z,1001.36
2018-09-29T07:29:08.306Z,1001.38
2018-09-29T07:30:08.457Z,1001.37
2018-09-29T07:31:08.305Z,1001.31
2018-09-29T07:32:08.312Z,1001.36
2018-09-29T07:33:15.383Z,1001.34
2018-09-29T07:34:08.311Z,1001.37
2018-09-29T07:35:08.363Z,1001.33
2018-09-29T07:36:08.334Z,1001.34
2018-09-29T07:37:08.320Z,1001.37
2018-09-29T07:38:08.321Z,1001.3
2018-09-29T07:39:08.321Z,1001.3
2018-09-29T07:40:08.469Z,1001.39
2018-09-29T07:41:08.323Z,1001.26
2018-09-29T07:42:08.333Z,1001.34
2018-09-29T07:43:08.328Z,1001.29
2018-09-29T07:44:08.335Z,1001.32
2018-09-29T07:45:08.370Z,1001.28
2018-09-29T07:46:08.335Z,1001.24
2018-09-29T07:47:08.336Z,1001.25
2018-09-29T07:48:08.338Z,1001.25
2018-09-29T07:49:08.404Z,1001.23
2018-09-29T07:50:08.475Z,1001.2
2018-09-29T07:51:08.342Z,1001.19
2018-09-29T07:52:08.356Z,1001.18
2018-09-29T07:53:08.348Z,1001.22
2018-09-29T07:54:08.377Z,1001.18
2018-09-29T07:55:08.382Z,1001.21
2018-09-29T07:56:08.351Z,1001.19
2018-09-29T07:57:08.355Z,1001.21
2018-09-29T07:58:08.356Z,1001.25
2018-09-29T07:59:08.357Z,1001.22
2018-09-29T08:00:11.049Z,1001.24
2018-09-29T08:01:08.362Z,1001.26
2018-09-29T08:02:08.363Z,1001.27
2018-09-29T08:03:08.371Z,1001.15
2018-09-29T08:04:08.373Z,1001.19
2018-09-29T08:05:08.388Z,1001.24
2018-09-29T08:06:08.368Z,1001.25
2018-09-29T08:07:08.373Z,1001.2
2018-09-29T08:08:08.376Z,1001.19
2018-09-29T08:09:08.377Z,1001.16
2018-09-29T08:10:08.520Z,1001.16
2018-09-29T08:11:08.385Z,1001.14
2018-09-29T08:12:08.387Z,1001.13
2018-09-29T08:13:08.389Z,1001.1
2018-09-29T08:14:08.401Z,1001.16
2018-09-29T08:15:08.524Z,1001.11
2018-09-29T08:16:08.391Z,1001.12
2018-09-29T08:17:08.407Z,1001.08
2018-09-29T08:18:08.394Z,1001.17
2018-09-29T08:19:08.396Z,1001.12
2018-09-29T08:20:08.479Z,1001.11
2018-09-29T08:21:08.397Z,1001.16
2018-09-29T08:22:08.398Z,1001.11
2018-09-29T08:23:08.406Z,1001.11
2018-09-29T08:24:08.457Z,1001.14
2018-09-29T08:25:08.500Z,1001.16
2018-09-29T08:26:08.419Z,1001.12
2018-09-29T08:27:08.398Z,1001.19
2018-09-29T08:28:08.396Z,1001.16
2018-09-29T08:29:08.397Z,1001.15
2018-09-29T08:30:08.475Z,1001.17
2018-09-29T08:31:08.422Z,1001.13
2018-09-29T08:32:08.402Z,1001.19
2018-09-29T08:33:08.417Z,1001.18
2018-09-29T08:34:08.394Z,1001.15
2018-09-29T08:35:08.491Z,1001.16
2018-09-29T08:36:08.405Z,1001.09
2018-09-29T08:37:08.396Z,1001.17
2018-09-29T08:38:08.404Z,1001.15
2018-09-29T08:39:08.396Z,1001.08
2018-09-29T08:40:08.433Z,1001.1
2018-09-29T08:41:08.383Z,1001.17
2018-09-29T08:42:08.383Z,1001.11
2018-09-29T08:43:08.380Z,1001.08
2018-09-29T08:44:08.379Z,1001.11
2018-09-29T08:45:08.513Z,1001.09
2018-09-29T08:46:08.380Z,1001
2018-09-29T08:47:08.376Z,1000.95
2018-09-29T08:48:08.373Z,1000.97
2018-09-29T08:49:08.369Z,1000.92
2018-09-29T08:50:08.417Z,1000.93
2018-09-29T08:51:08.369Z,1000.92
2018-09-29T08:52:08.363Z,1000.94
2018-09-29T08:53:08.419Z,1000.88
2018-09-29T08:54:08.366Z,1000.89
2018-09-29T08:55:08.360Z,1000.92
2018-09-29T08:56:08.360Z,1000.84
2018-09-29T08:57:08.360Z,1000.85
2018-09-29T08:58:08.370Z,1000.84
2018-09-29T08:59:08.367Z,1000.78
2018-09-29T09:00:08.438Z,1000.76
2018-09-29T09:01:08.356Z,1000.75
2018-09-29T09:02:08.360Z,1000.83
2018-09-29T09:03:08.354Z,1000.82
2018-09-29T09:04:08.511Z,1000.86
2018-09-29T09:05:08.471Z,1000.79
2018-09-29T09:06:08.347Z,1000.75
2018-09-29T09:07:08.351Z,1000.77
2018-09-29T09:08:08.346Z,1000.74
2018-09-29T09:09:08.333Z,1000.76
2018-09-29T09:10:08.471Z,1000.76
2018-09-29T09:11:08.331Z,1000.75
2018-09-29T09:12:08.329Z,1000.74
2018-09-29T09:13:08.324Z,1000.88
2018-09-29T09:14:08.323Z,1000.77
2018-09-29T09:15:08.466Z,1000.75
2018-09-29T09:16:08.316Z,1000.68
2018-09-29T09:17:08.318Z,1000.7
2018-09-29T09:18:08.320Z,1000.61
2018-09-29T09:19:08.316Z,1000.65
2018-09-29T09:20:08.582Z,1000.65
2018-09-29T09:21:08.317Z,1000.62
2018-09-29T09:22:08.320Z,1000.59
2018-09-29T09:23:08.387Z,1000.66
2018-09-29T09:24:08.335Z,1000.61
2018-09-29T09:25:08.354Z,1000.65
2018-09-29T09:26:08.314Z,1000.63
2018-09-29T09:27:08.309Z,1000.65
2018-09-29T09:28:08.313Z,1000.64
2018-09-29T09:29:08.306Z,1000.61
2018-09-29T09:30:08.419Z,1000.62
2018-09-29T09:31:08.313Z,1000.66
2018-09-29T09:32:08.304Z,1000.67
2018-09-29T09:33:08.301Z,1000.62
2018-09-29T09:34:08.300Z,1000.64
2018-09-29T09:35:08.443Z,1000.57
2018-09-29T09:36:08.301Z,1000.61
2018-09-29T09:37:08.288Z,1000.61
2018-09-29T09:38:08.287Z,1000.56
2018-09-29T09:39:08.306Z,1000.59
2018-09-29T09:40:08.521Z,1000.54
2018-09-29T09:41:08.360Z,1000.59
2018-09-29T09:42:08.281Z,1000.57
2018-09-29T09:43:08.283Z,1000.57
2018-09-29T09:44:08.277Z,1000.57
2018-09-29T09:45:08.366Z,1000.56
2018-09-29T09:46:08.277Z,1000.53
2018-09-29T09:47:08.275Z,1000.62
2018-09-29T09:48:08.272Z,1000.53
2018-09-29T09:49:08.268Z,1000.53
2018-09-29T09:50:08.336Z,1000.48
2018-09-29T09:51:08.269Z,1000.43
2018-09-29T09:52:08.270Z,1000.36
2018-09-29T09:53:08.266Z,1000.45
2018-09-29T09:54:08.271Z,1000.4
2018-09-29T09:55:08.310Z,1000.41
2018-09-29T09:56:08.381Z,1000.41
2018-09-29T09:57:12.339Z,1000.42
2018-09-29T09:58:08.257Z,1000.4
2018-09-29T09:59:08.263Z,1000.29
2018-09-29T10:00:08.450Z,1000.3
2018-09-29T10:01:08.253Z,1000.36
2018-09-29T10:02:08.249Z,1000.39
2018-09-29T10:03:08.246Z,1000.33
2018-09-29T10:04:08.308Z,1000.38
2018-09-29T10:05:08.404Z,1000.31
2018-09-29T10:06:08.247Z,1000.34
2018-09-29T10:07:08.243Z,1000.36
2018-09-29T10:08:08.239Z,1000.28
2018-09-29T10:09:08.242Z,1000.28
2018-09-29T10:10:08.400Z,1000.3
2018-09-29T10:11:08.238Z,1000.22
2018-09-29T10:12:08.251Z,1000.28
2018-09-29T10:13:08.230Z,1000.32
2018-09-29T10:14:08.232Z,1000.29
2018-09-29T10:15:08.286Z,1000.27
2018-09-29T10:16:08.226Z,1000.27
2018-09-29T10:17:08.224Z,1000.27
2018-09-29T10:18:08.226Z,1000.26
2018-09-29T10:19:08.573Z,1000.2
2018-09-29T10:20:08.289Z,1000.23
2018-09-29T10:21:08.217Z,1000.24
2018-09-29T10:22:08.226Z,1000.17
2018-09-29T10:23:08.218Z,1000.23
2018-09-29T10:24:08.211Z,1000.19
2018-09-29T10:25:08.267Z,1000.13
2018-09-29T10:26:08.213Z,1000.12
2018-09-29T10:27:08.210Z,1000.08
2018-09-29T10:28:08.216Z,1000.05
2018-09-29T10:29:08.213Z,1000.1
2018-09-29T10:30:08.351Z,1000.14
2018-09-29T10:31:08.208Z,1000.13
2018-09-29T10:32:08.197Z,1000.06
2018-09-29T10:33:08.198Z,1000.06
2018-09-29T10:34:08.196Z,1000.04
2018-09-29T10:35:08.329Z,1000.04
2018-09-29T10:36:08.194Z,1000.09
2018-09-29T10:37:08.205Z,999.94
2018-09-29T10:38:08.194Z,1000.13
2018-09-29T10:39:08.190Z,999.96
2018-09-29T10:40:08.267Z,1000.05
2018-09-29T10:41:08.188Z,1000.02
2018-09-29T10:42:08.183Z,1000.03
2018-09-29T10:43:08.183Z,1000
2018-09-29T10:44:08.271Z,1000.01
2018-09-29T10:45:08.407Z,999.97
2018-09-29T10:46:08.178Z,999.92
2018-09-29T10:47:08.178Z,999.95
2018-09-29T10:48:08.182Z,999.93
2018-09-29T10:49:08.176Z,999.84
2018-09-29T10:50:08.288Z,999.81
2018-09-29T10:51:08.170Z,999.79
2018-09-29T10:52:08.170Z,999.8
2018-09-29T10:53:08.170Z,999.8
2018-09-29T10:54:08.167Z,999.77
2018-09-29T10:55:08.287Z,999.86
2018-09-29T10:56:08.165Z,999.75
2018-09-29T10:57:08.162Z,999.73
2018-09-29T10:58:08.160Z,999.68
2018-09-29T10:59:08.223Z,999.63
2018-09-29T11:00:08.283Z,999.61
2018-09-29T11:01:08.161Z,999.65
2018-09-29T11:02:08.164Z,999.62
2018-09-29T11:03:08.154Z,999.62
2018-09-29T11:04:08.155Z,999.62
2018-09-29T11:05:08.441Z,999.71
2018-09-29T11:06:08.150Z,999.57
2018-09-29T11:07:08.153Z,999.6
2018-09-29T11:08:08.155Z,999.58
2018-09-29T11:09:08.151Z,999.66
2018-09-29T11:10:08.176Z,999.64
2018-09-29T11:11:08.155Z,999.59
2018-09-29T11:12:08.156Z,999.63
2018-09-29T11:13:08.143Z,999.59
2018-09-29T11:14:08.140Z,999.56
2018-09-29T11:15:08.177Z,999.56
2018-09-29T11:16:08.138Z,999.53
2018-09-29T11:17:08.141Z,999.58
2018-09-29T11:18:08.135Z,999.48
2018-09-29T11:19:08.136Z,999.44
2018-09-29T11:20:08.182Z,999.38
2018-09-29T11:21:08.133Z,999.47
2018-09-29T11:22:08.139Z,999.52
2018-09-29T11:23:08.139Z,999.53
2018-09-29T11:24:08.128Z,999.54
2018-09-29T11:25:08.256Z,999.48
2018-09-29T11:26:08.128Z,999.44
2018-09-29T11:27:08.129Z,999.42
2018-09-29T11:28:08.179Z,999.41
2018-09-29T11:29:08.127Z,999.42
2018-09-29T11:30:08.124Z,999.37
2018-09-29T11:31:08.123Z,999.35
2018-09-29T11:32:08.125Z,999.3
2018-09-29T11:33:08.126Z,999.3
2018-09-29T11:34:08.122Z,999.36
2018-09-29T11:35:08.171Z,999.3
2018-09-29T11:36:08.119Z,999.29
2018-09-29T11:37:08.117Z,999.28
2018-09-29T11:38:08.117Z,999.28
2018-09-29T11:39:08.160Z,999.21
2018-09-29T11:40:08.141Z,999.18
2018-09-29T11:41:08.115Z,999.11
2018-09-29T11:42:08.119Z,999.05
2018-09-29T11:43:08.116Z,999.04
2018-09-29T11:44:08.115Z,999
2018-09-29T11:45:08.156Z,999.06
2018-09-29T11:46:08.112Z,998.98
2018-09-29T11:47:08.112Z,998.97
2018-09-29T11:48:08.109Z,999.01
2018-09-29T11:49:08.113Z,998.92
2018-09-29T11:50:08.117Z,998.92
2018-09-29T11:51:08.114Z,998.92
2018-09-29T11:52:08.108Z,998.89
2018-09-29T11:53:08.118Z,998.89
2018-09-29T11:54:08.158Z,998.89
2018-09-29T11:55:08.166Z,998.83
2018-09-29T11:56:08.126Z,998.83
2018-09-29T11:57:08.113Z,998.8
2018-09-29T11:58:08.107Z,998.7
2018-09-29T11:59:08.104Z,998.72
2018-09-29T12:00:08.117Z,998.74
2018-09-29T12:01:08.102Z,998.75
2018-09-29T12:02:08.120Z,998.69
2018-09-29T12:03:08.099Z,998.61
2018-09-29T12:04:08.103Z,998.68
2018-09-29T12:05:08.150Z,998.64
2018-09-29T12:06:08.194Z,998.72
2018-09-29T12:07:08.130Z,998.64
2018-09-29T12:08:08.179Z,998.6
2018-09-29T12:09:08.102Z,998.6
2018-09-29T12:10:08.243Z,998.51
2018-09-29T12:11:08.103Z,998.5